createdAt,value
2019-05-22T00:00:27.104Z,11.90
2019-05-22T00:02:53.423Z,11.90
2019-05-22T00:05:24.311Z,11.90
2019-05-22T00:07:50.707Z,11.90
2019-05-22T00:10:18.832Z,11.90
2019-05-22T00:12:47.335Z,11.90
2019-05-22T00:15:16.140Z,11.90
2019-05-22T00:17:42.198Z,11.90
2019-05-22T00:20:09.872Z,11.90
2019-05-22T00:22:36.318Z,11.90
2019-05-22T00:25:04.752Z,11.90
2019-05-22T00:27:31.692Z,11.90
2019-05-22T00:29:58.619Z,11.90
2019-05-22T00:32:24.786Z,11.80
2019-05-22T00:34:52.916Z,11.90
2019-05-22T00:37:20.113Z,11.80
2019-05-22T00:39:47.323Z,11.90
2019-05-22T00:42:15.050Z,11.80
2019-05-22T00:44:42.599Z,11.80
2019-05-22T00:47:12.618Z,11.80
2019-05-22T00:49:39.935Z,11.80
2019-05-22T00:52:23.208Z,11.70
2019-05-22T00:54:58.171Z,11.70
2019-05-22T00:57:26.818Z,11.70
2019-05-22T00:59:54.936Z,11.70
2019-05-22T01:02:27.896Z,11.70
2019-05-22T01:04:53.914Z,11.70
2019-05-22T01:07:29.828Z,11.70
2019-05-22T01:09:57.952Z,11.60
2019-05-22T01:12:24.331Z,11.60
2019-05-22T01:14:52.538Z,11.60
2019-05-22T01:17:20.334Z,11.60
2019-05-22T01:19:48.259Z,11.60
2019-05-22T01:22:14.831Z,11.60
2019-05-22T01:24:42.244Z,11.60
2019-05-22T01:27:09.024Z,11.60
2019-05-22T01:32:36.436Z,11.50
2019-05-22T01:35:07.064Z,11.50
2019-05-22T01:37:33.987Z,11.50
2019-05-22T01:40:02.120Z,11.50
2019-05-22T01:42:32.652Z,11.50
2019-05-22T01:45:06.016Z,11.40
2019-05-22T01:47:41.848Z,11.40
2019-05-22T01:50:09.783Z,11.40
2019-05-22T01:52:37.708Z,11.40
2019-05-22T01:55:04.413Z,11.40
2019-05-22T01:57:30.651Z,11.40
2019-05-22T01:59:56.675Z,11.40
2019-05-22T02:02:25.383Z,11.40
2019-05-22T02:04:51.559Z,11.40
2019-05-22T02:07:18.183Z,11.40
2019-05-22T02:09:45.725Z,11.40
2019-05-22T02:12:15.568Z,11.40
2019-05-22T02:14:44.009Z,11.40
2019-05-22T02:17:10.030Z,11.40
2019-05-22T02:19:36.721Z,11.40
2019-05-22T02:22:04.091Z,11.40
2019-05-22T02:24:30.130Z,11.40
2019-05-22T02:26:56.568Z,11.40
2019-05-22T02:29:22.591Z,11.40
2019-05-22T02:31:50.293Z,11.40
2019-05-22T02:34:16.607Z,11.40
2019-05-22T02:36:44.743Z,11.30
2019-05-22T02:39:17.097Z,11.40
2019-05-22T02:41:48.026Z,11.40
2019-05-22T02:44:14.261Z,11.30
2019-05-22T02:46:40.585Z,11.40
2019-05-22T02:49:09.212Z,11.40
2019-05-22T02:51:35.840Z,11.30
2019-05-22T02:54:03.424Z,11.30
2019-05-22T02:56:31.359Z,11.30
2019-05-22T02:58:57.392Z,11.30
2019-05-22T03:01:24.403Z,11.40
2019-05-22T03:03:50.830Z,11.40
2019-05-22T03:06:16.951Z,11.40
2019-05-22T03:08:57.116Z,11.40
2019-05-22T03:11:24.271Z,11.40
2019-05-22T03:14:01.438Z,11.40
2019-05-22T03:16:29.796Z,11.40
2019-05-22T03:19:08.485Z,11.30
2019-05-22T03:21:25.718Z,11.40
2019-05-22T03:23:52.791Z,11.30
2019-05-22T03:26:20.939Z,11.40
2019-05-22T03:28:47.271Z,11.30
2019-05-22T03:31:15.504Z,11.30
2019-05-22T03:33:41.726Z,11.30
2019-05-22T03:36:09.950Z,11.40
2019-05-22T03:38:38.096Z,11.30
2019-05-22T03:41:05.336Z,11.30
2019-05-22T03:43:35.092Z,11.40
2019-05-22T03:46:05.821Z,11.40
2019-05-22T03:48:33.762Z,11.40
2019-05-22T03:51:11.640Z,11.40
2019-05-22T03:53:38.666Z,11.40
2019-05-22T03:56:04.996Z,11.40
2019-05-22T03:58:31.021Z,11.30
2019-05-22T04:00:57.237Z,11.40
2019-05-22T04:03:23.372Z,11.40
2019-05-22T04:05:49.949Z,11.40
2019-05-22T04:08:16.575Z,11.40
2019-05-22T04:10:50.529Z,11.40
2019-05-22T04:13:17.549Z,11.40
2019-05-22T04:15:44.376Z,11.40
2019-05-22T04:18:11.467Z,11.40
2019-05-22T04:20:37.902Z,11.30
2019-05-22T04:23:04.308Z,11.40
2019-05-22T04:25:30.334Z,11.40
2019-05-22T04:27:56.891Z,11.40
2019-05-22T04:30:23.080Z,11.40
2019-05-22T04:32:49.094Z,11.40
2019-05-22T04:35:16.729Z,11.40
2019-05-22T04:37:43.834Z,11.40
2019-05-22T04:40:12.871Z,11.40
2019-05-22T04:42:40.462Z,11.30
2019-05-22T04:45:11.438Z,11.30
2019-05-22T04:47:39.296Z,11.30
2019-05-22T04:50:08.697Z,11.30
2019-05-22T04:52:36.079Z,11.40
2019-05-22T04:55:03.601Z,11.40
2019-05-22T04:57:30.541Z,11.40
2019-05-22T04:59:58.027Z,11.40
2019-05-22T05:02:24.068Z,11.40
2019-05-22T05:04:50.361Z,11.40
2019-05-22T05:07:16.901Z,11.40
2019-05-22T05:09:43.040Z,11.40
2019-05-22T05:12:09.402Z,11.40
2019-05-22T05:14:35.408Z,11.50
2019-05-22T05:17:01.627Z,11.40
2019-05-22T05:19:27.963Z,11.40
2019-05-22T05:21:54.192Z,11.40
2019-05-22T05:24:20.250Z,11.40
2019-05-22T05:26:47.396Z,11.40
2019-05-22T05:29:23.537Z,11.40
2019-05-22T05:31:49.696Z,11.50
2019-05-22T05:34:34.906Z,11.40
2019-05-22T05:37:02.596Z,11.40
2019-05-22T05:39:37.060Z,11.40
2019-05-22T05:42:03.691Z,11.40
2019-05-22T05:44:30.543Z,11.40
2019-05-22T05:46:56.880Z,11.50
2019-05-22T05:49:23.636Z,11.50
2019-05-22T05:51:49.912Z,11.50
2019-05-22T05:54:18.332Z,11.50
2019-05-22T05:56:45.200Z,11.40
2019-05-22T05:59:11.937Z,11.50
2019-05-22T06:01:42.785Z,11.50
2019-05-22T06:04:09.208Z,11.50
2019-05-22T06:06:38.175Z,11.50
2019-05-22T06:09:07.128Z,11.50
2019-05-22T06:11:42.242Z,11.60
2019-05-22T06:14:10.777Z,11.60
2019-05-22T06:16:48.232Z,11.60
2019-05-22T06:19:16.571Z,11.50
2019-05-22T06:21:47.641Z,11.60
2019-05-22T06:24:19.350Z,11.50
2019-05-22T06:26:47.353Z,11.60
2019-05-22T06:29:15.123Z,11.60
2019-05-22T06:31:49.291Z,11.60
2019-05-22T06:34:15.319Z,11.60
2019-05-22T06:36:41.530Z,11.60
2019-05-22T06:39:09.997Z,11.70
2019-05-22T06:41:36.980Z,11.70
2019-05-22T06:44:17.457Z,11.80
2019-05-22T06:46:44.825Z,11.80
2019-05-22T06:49:31.479Z,11.80
2019-05-22T06:51:57.490Z,11.80
2019-05-22T06:54:23.564Z,11.80
2019-05-22T06:56:49.925Z,11.80
2019-05-22T06:59:15.990Z,11.80
2019-05-22T07:01:42.020Z,11.90
2019-05-22T07:04:08.071Z,11.90
2019-05-22T07:06:35.130Z,11.90
2019-05-22T07:09:03.190Z,12.00
2019-05-22T07:11:29.848Z,11.90
2019-05-22T07:13:58.976Z,11.90
2019-05-22T07:16:24.992Z,11.90
2019-05-22T07:18:51.011Z,12.00
2019-05-22T07:21:17.042Z,12.10
2019-05-22T07:23:45.175Z,12.10
2019-05-22T07:26:11.211Z,12.20
2019-05-22T07:28:38.040Z,12.20
2019-05-22T07:31:05.286Z,12.20
2019-05-22T07:33:31.310Z,12.20
2019-05-22T07:36:09.958Z,12.20
2019-05-22T07:38:27.221Z,12.30
2019-05-22T07:40:54.958Z,12.50
2019-05-22T07:43:21.369Z,12.50
2019-05-22T07:45:47.694Z,12.60
2019-05-22T07:48:15.344Z,12.80
2019-05-22T07:50:48.020Z,12.80
2019-05-22T07:53:12.045Z,12.90
2019-05-22T07:55:38.296Z,12.80
2019-05-22T07:58:11.811Z,12.90
2019-05-22T08:00:39.945Z,13.00
2019-05-22T08:03:06.167Z,13.00
2019-05-22T08:05:33.294Z,13.20
2019-05-22T08:08:00.436Z,12.90
2019-05-22T08:10:27.475Z,13.10
2019-05-22T08:12:54.113Z,13.20
2019-05-22T08:15:20.651Z,13.20
2019-05-22T08:17:46.682Z,13.40
2019-05-22T08:20:12.952Z,13.50
2019-05-22T08:22:39.669Z,13.70
2019-05-22T08:25:06.020Z,13.90
2019-05-22T08:27:32.341Z,14.00
2019-05-22T08:29:58.472Z,14.20
2019-05-22T08:32:24.492Z,14.60
2019-05-22T08:34:50.632Z,14.70
2019-05-22T08:37:18.500Z,14.40
2019-05-22T08:39:44.726Z,14.60
2019-05-22T08:42:12.455Z,14.80
2019-05-22T08:44:39.327Z,14.60
2019-05-22T08:47:07.436Z,14.60
2019-05-22T08:49:33.757Z,15.60
2019-05-22T08:52:00.098Z,15.80
2019-05-22T08:54:26.921Z,16.30
2019-05-22T08:56:53.650Z,16.30
2019-05-22T08:59:20.392Z,16.30
2019-05-22T09:01:47.276Z,16.20
2019-05-22T09:04:14.595Z,15.40
2019-05-22T09:06:40.727Z,15.40
2019-05-22T09:09:06.964Z,15.60
2019-05-22T09:11:33.206Z,15.60
2019-05-22T09:13:59.235Z,15.60
2019-05-22T09:16:25.687Z,16.00
2019-05-22T09:18:53.609Z,16.50
2019-05-22T09:21:20.048Z,17.00
2019-05-22T09:23:46.673Z,17.00
2019-05-22T09:26:13.699Z,17.00
2019-05-22T09:28:39.742Z,17.40
2019-05-22T09:31:06.165Z,17.50
2019-05-22T09:33:34.064Z,17.70
2019-05-22T09:38:03.551Z,16.90
2019-05-22T09:40:30.987Z,17.70
2019-05-22T09:42:57.312Z,17.60
2019-05-22T09:45:23.340Z,17.90
2019-05-22T09:47:49.980Z,18.20
2019-05-22T09:50:16.891Z,17.70
2019-05-22T09:52:56.816Z,17.00
2019-05-22T09:55:13.457Z,16.80
2019-05-22T09:57:39.937Z,17.00
2019-05-22T10:00:08.423Z,17.40
2019-05-22T10:02:34.692Z,17.80
2019-05-22T10:05:01.607Z,18.30
2019-05-22T10:07:27.923Z,18.30
2019-05-22T10:09:53.947Z,18.30
2019-05-22T10:12:20.497Z,18.30
2019-05-22T10:14:46.670Z,18.40
2019-05-22T10:17:14.262Z,18.60
2019-05-22T10:19:40.892Z,18.50
2019-05-22T10:22:08.168Z,18.10
2019-05-22T10:24:34.507Z,18.00
2019-05-22T10:27:01.336Z,18.10
2019-05-22T10:29:31.995Z,17.90
2019-05-22T10:31:56.012Z,18.00
2019-05-22T10:34:22.666Z,17.90
2019-05-22T10:36:49.053Z,18.40
2019-05-22T10:39:15.293Z,18.90
2019-05-22T10:41:41.728Z,18.60
2019-05-22T10:44:07.788Z,19.10
2019-05-22T10:46:34.291Z,19.30
2019-05-22T10:49:02.025Z,18.90
2019-05-22T10:51:28.471Z,19.00
2019-05-22T10:53:54.508Z,19.30
2019-05-22T10:56:20.642Z,19.10
2019-05-22T10:58:46.679Z,19.20
2019-05-22T11:01:13.302Z,19.00
2019-05-22T11:03:39.779Z,19.10
2019-05-22T11:06:07.816Z,18.70
2019-05-22T11:08:34.578Z,19.30
2019-05-22T11:11:01.183Z,19.40
2019-05-22T11:13:27.205Z,19.40
2019-05-22T11:15:54.148Z,19.20
2019-05-22T11:18:21.152Z,19.30
2019-05-22T11:20:47.180Z,19.40
2019-05-22T11:23:13.611Z,19.30
2019-05-22T11:25:40.238Z,19.40
2019-05-22T11:28:06.872Z,19.10
2019-05-22T11:30:33.217Z,19.10
2019-05-22T11:33:00.257Z,19.10
2019-05-22T11:35:26.870Z,19.40
2019-05-22T11:37:52.934Z,19.40
2019-05-22T11:40:19.754Z,19.20
2019-05-22T11:42:46.048Z,19.10
2019-05-22T11:45:13.432Z,19.40
2019-05-22T11:47:39.892Z,19.60
2019-05-22T11:50:06.992Z,19.20
2019-05-22T11:52:33.575Z,20.00
2019-05-22T11:54:59.902Z,20.00
2019-05-22T11:57:27.044Z,20.00
2019-05-22T11:59:53.106Z,19.90
2019-05-22T12:02:20.855Z,20.10
2019-05-22T12:04:48.721Z,19.80
2019-05-22T12:07:15.234Z,19.70
2019-05-22T12:09:41.256Z,20.20
2019-05-22T12:12:07.383Z,20.20
2019-05-22T12:14:33.732Z,20.00
2019-05-22T12:16:59.760Z,19.90
2019-05-22T12:19:26.601Z,19.80
2019-05-22T12:21:52.693Z,20.00
2019-05-22T12:24:27.492Z,19.80
2019-05-22T12:26:47.682Z,19.60
2019-05-22T12:29:17.220Z,19.60
2019-05-22T12:31:42.124Z,19.90
2019-05-22T12:34:08.563Z,19.90
2019-05-22T12:36:34.947Z,20.20
2019-05-22T12:39:01.557Z,20.00
2019-05-22T12:41:29.490Z,20.00
2019-05-22T12:43:55.948Z,20.40
2019-05-22T12:46:22.589Z,20.60
2019-05-22T12:48:48.790Z,20.60
2019-05-22T12:51:15.215Z,20.80
2019-05-22T12:53:41.472Z,20.80
2019-05-22T12:56:08.026Z,21.10
2019-05-22T12:58:34.536Z,20.90
2019-05-22T13:01:00.778Z,21.10
2019-05-22T13:03:27.191Z,20.70
2019-05-22T13:05:53.735Z,20.40
2019-05-22T13:08:20.195Z,20.70
2019-05-22T13:10:46.740Z,20.90
2019-05-22T13:13:12.872Z,21.10
2019-05-22T13:15:39.212Z,20.90
2019-05-22T13:18:06.636Z,20.40
2019-05-22T13:20:42.450Z,20.50
2019-05-22T13:23:06.141Z,20.40
2019-05-22T13:25:34.001Z,20.40
2019-05-22T13:28:00.873Z,20.00
2019-05-22T13:30:28.662Z,20.30
2019-05-22T13:32:55.536Z,20.20
2019-05-22T13:35:22.616Z,20.10
2019-05-22T13:37:48.931Z,20.40
2019-05-22T13:40:27.171Z,20.80
2019-05-22T13:42:43.857Z,20.50
2019-05-22T13:45:27.699Z,20.40
2019-05-22T13:47:38.931Z,20.10
2019-05-22T13:50:05.474Z,20.20
2019-05-22T13:52:33.289Z,20.40
2019-05-22T13:54:59.926Z,20.10
2019-05-22T13:57:27.347Z,20.40
2019-05-22T13:59:53.398Z,20.50
2019-05-22T14:02:20.737Z,20.80
2019-05-22T14:04:47.076Z,20.80
2019-05-22T14:07:13.123Z,20.90
2019-05-22T14:09:40.045Z,21.30
2019-05-22T14:12:08.277Z,21.30
2019-05-22T14:14:34.303Z,21.20
2019-05-22T14:17:00.333Z,21.10
2019-05-22T14:19:26.358Z,21.10
2019-05-22T14:21:52.412Z,21.20
2019-05-22T14:24:19.795Z,21.50
2019-05-22T14:26:46.008Z,21.40
2019-05-22T14:29:12.025Z,21.50
2019-05-22T14:31:41.119Z,21.90
2019-05-22T14:34:09.442Z,21.60
2019-05-22T14:36:35.783Z,21.30
2019-05-22T14:39:05.707Z,21.00
2019-05-22T14:41:31.957Z,21.20
2019-05-22T14:43:57.982Z,21.20
2019-05-22T14:46:24.159Z,20.90
2019-05-22T14:48:50.182Z,20.90
2019-05-22T14:51:16.621Z,21.20
2019-05-22T14:53:42.915Z,20.70
2019-05-22T14:56:10.976Z,21.20
2019-05-22T14:58:38.491Z,21.20
2019-05-22T15:01:04.755Z,21.30
2019-05-22T15:03:30.849Z,20.80
2019-05-22T15:05:56.870Z,20.90
2019-05-22T15:08:24.488Z,21.10
2019-05-22T15:10:50.816Z,21.40
2019-05-22T15:13:17.073Z,21.40
2019-05-22T15:15:43.282Z,21.40
2019-05-22T15:18:10.043Z,21.50
2019-05-22T15:20:48.431Z,21.30
2019-05-22T15:23:15.163Z,21.20
2019-05-22T15:25:41.589Z,21.30
2019-05-22T15:28:08.460Z,21.20
2019-05-22T15:30:35.389Z,21.00
2019-05-22T15:33:01.516Z,20.80
2019-05-22T15:35:27.837Z,20.90
2019-05-22T15:37:55.175Z,20.90
2019-05-22T15:40:21.928Z,20.70
2019-05-22T15:42:49.080Z,20.50
2019-05-22T15:45:19.081Z,20.60
2019-05-22T15:47:54.924Z,20.70
2019-05-22T15:50:18.855Z,20.70
2019-05-22T15:52:53.978Z,20.80
2019-05-22T15:55:22.576Z,20.70
2019-05-22T15:57:49.101Z,20.80
2019-05-22T16:00:18.613Z,20.50
2019-05-22T16:02:49.085Z,20.70
2019-05-22T16:05:17.788Z,20.60
2019-05-22T16:07:46.768Z,20.30
2019-05-22T16:10:14.011Z,20.00
2019-05-22T16:12:40.602Z,20.10
2019-05-22T16:15:09.600Z,20.40
2019-05-22T16:17:41.503Z,20.40
2019-05-22T16:20:06.878Z,20.60
2019-05-22T16:22:34.390Z,20.40
2019-05-22T16:25:00.553Z,20.50
2019-05-22T16:27:29.436Z,20.60
2019-05-22T16:29:58.567Z,20.80
2019-05-22T16:32:26.529Z,20.90
2019-05-22T16:34:53.082Z,21.00
2019-05-22T16:37:19.903Z,21.00
2019-05-22T16:39:50.056Z,21.00
2019-05-22T16:42:15.031Z,21.10
2019-05-22T16:44:41.719Z,21.20
2019-05-22T16:47:09.082Z,21.20
2019-05-22T16:49:36.347Z,21.10
2019-05-22T16:52:06.200Z,21.00
2019-05-22T16:54:32.648Z,20.80
2019-05-22T16:57:00.560Z,20.70
2019-05-22T16:59:27.640Z,20.50
2019-05-22T17:01:59.271Z,20.50
2019-05-22T17:04:23.337Z,20.50
2019-05-22T17:06:50.808Z,20.70
2019-05-22T17:09:18.567Z,20.70
2019-05-22T17:11:45.229Z,20.40
2019-05-22T17:14:11.786Z,20.60
2019-05-22T17:16:39.007Z,20.70
2019-05-22T17:19:25.220Z,20.70
2019-05-22T17:21:35.496Z,20.40
2019-05-22T17:24:02.921Z,20.40
2019-05-22T17:26:29.420Z,20.50
2019-05-22T17:28:55.795Z,20.60
2019-05-22T17:31:23.967Z,20.40
2019-05-22T17:33:51.072Z,20.20
2019-05-22T17:36:17.740Z,20.30
2019-05-22T17:38:44.402Z,20.10
2019-05-22T17:41:11.320Z,20.20
2019-05-22T17:43:38.072Z,20.30
2019-05-22T17:46:05.570Z,20.10
2019-05-22T17:48:32.385Z,20.00
2019-05-22T17:50:58.545Z,20.00
2019-05-22T17:53:25.317Z,20.00
2019-05-22T17:55:52.199Z,19.90
2019-05-22T17:58:19.854Z,20.00
2019-05-22T18:00:47.927Z,20.00
2019-05-22T18:03:16.806Z,19.90
2019-05-22T18:05:43.643Z,19.80
2019-05-22T18:08:10.907Z,19.70
2019-05-22T18:10:40.554Z,19.60
2019-05-22T18:13:08.350Z,19.60
2019-05-22T18:15:35.035Z,19.50
2019-05-22T18:18:01.428Z,19.50
2019-05-22T18:20:41.726Z,19.40
2019-05-22T18:22:56.656Z,19.40
2019-05-22T18:25:23.322Z,19.30
2019-05-22T18:27:50.419Z,19.30
2019-05-22T18:30:16.795Z,19.30
2019-05-22T18:32:42.936Z,19.20
2019-05-22T18:35:11.459Z,19.20
2019-05-22T18:37:37.608Z,19.10
2019-05-22T18:40:06.347Z,19.10
2019-05-22T18:42:32.900Z,19.00
2019-05-22T18:44:59.053Z,18.90
2019-05-22T18:47:25.537Z,18.90
2019-05-22T18:49:51.981Z,18.90
2019-05-22T18:52:18.444Z,19.00
2019-05-22T18:54:44.606Z,19.00
2019-05-22T18:57:10.960Z,18.80
2019-05-22T18:59:38.246Z,18.80
2019-05-22T19:02:04.898Z,18.80
2019-05-22T19:04:31.833Z,18.70
2019-05-22T19:06:58.375Z,18.60
2019-05-22T19:09:24.941Z,18.50
2019-05-22T19:11:51.471Z,18.50
2019-05-22T19:14:17.901Z,18.50
2019-05-22T19:16:44.278Z,18.30
2019-05-22T19:19:10.460Z,18.20
2019-05-22T19:21:36.709Z,18.20
2019-05-22T19:24:03.743Z,18.20
2019-05-22T19:26:30.301Z,18.10
2019-05-22T19:28:56.791Z,18.10
2019-05-22T19:31:23.523Z,18.10
2019-05-22T19:33:49.838Z,18.00
2019-05-22T19:36:16.110Z,17.90
2019-05-22T19:38:42.935Z,17.80
2019-05-22T19:41:09.766Z,17.70
2019-05-22T19:43:36.031Z,17.70
2019-05-22T19:46:02.607Z,17.60
2019-05-22T19:48:29.169Z,17.60
2019-05-22T19:50:55.751Z,17.50
2019-05-22T19:53:22.235Z,17.40
2019-05-22T19:55:49.705Z,17.40
2019-05-22T19:58:18.782Z,17.40
2019-05-22T20:00:46.128Z,17.30
2019-05-22T20:03:14.321Z,17.20
2019-05-22T20:05:40.871Z,17.20
2019-05-22T20:08:07.042Z,17.20
2019-05-22T20:10:33.313Z,17.20
2019-05-22T20:12:59.681Z,17.10
2019-05-22T20:15:27.340Z,17.10
2019-05-22T20:17:54.413Z,17.00
2019-05-22T20:20:21.939Z,16.90
2019-05-22T20:22:48.996Z,16.90
2019-05-22T20:25:16.728Z,16.90
2019-05-22T20:27:43.647Z,16.80
2019-05-22T20:30:12.803Z,16.70
2019-05-22T20:32:39.174Z,16.70
2019-05-22T20:35:07.188Z,16.70
2019-05-22T20:37:33.331Z,16.70
2019-05-22T20:40:00.092Z,16.60
2019-05-22T20:42:27.249Z,16.50
2019-05-22T20:44:53.730Z,16.40
2019-05-22T20:47:21.675Z,16.40
2019-05-22T20:49:48.819Z,16.40
2019-05-22T20:52:17.367Z,16.60
2019-05-22T20:54:44.334Z,16.50
2019-05-22T20:57:12.324Z,16.60
2019-05-22T20:59:41.508Z,16.60
2019-05-22T21:02:08.968Z,16.60
2019-05-22T21:04:35.820Z,16.50
2019-05-22T21:07:05.196Z,16.40
2019-05-22T21:09:31.676Z,16.40
2019-05-22T21:11:59.168Z,16.30
2019-05-22T21:14:25.645Z,16.20
2019-05-22T21:16:52.514Z,16.00
2019-05-22T21:19:23.459Z,15.90
2019-05-22T21:21:49.572Z,15.90
2019-05-22T21:24:15.923Z,15.80
2019-05-22T21:26:43.184Z,15.80
2019-05-22T21:29:09.540Z,15.80
2019-05-22T21:31:35.881Z,15.70
2019-05-22T21:34:02.442Z,15.70
2019-05-22T21:36:28.994Z,15.70
2019-05-22T21:38:56.307Z,15.60
2019-05-22T21:41:22.954Z,15.60
2019-05-22T21:43:50.593Z,15.50
2019-05-22T21:46:16.974Z,15.60
2019-05-22T21:48:44.207Z,15.50
2019-05-22T21:51:11.384Z,15.40
2019-05-22T21:53:37.528Z,15.30
2019-05-22T21:56:06.237Z,15.30
2019-05-22T21:58:33.739Z,15.30
2019-05-22T22:01:03.718Z,15.10
2019-05-22T22:03:33.064Z,15.10
2019-05-22T22:05:59.543Z,15.10
2019-05-22T22:08:26.201Z,14.90
2019-05-22T22:10:52.821Z,14.90
2019-05-22T22:13:19.363Z,14.80
2019-05-22T22:15:47.787Z,14.70
2019-05-22T22:18:15.389Z,14.80
2019-05-22T22:20:42.894Z,14.70
2019-05-22T22:23:11.719Z,14.70
2019-05-22T22:25:39.181Z,14.60
2019-05-22T22:28:05.556Z,14.50
2019-05-22T22:30:43.016Z,14.50
2019-05-22T22:33:10.191Z,14.50
2019-05-22T22:35:37.310Z,14.40
2019-05-22T22:38:04.075Z,14.40
2019-05-22T22:40:32.334Z,14.40
2019-05-22T22:43:02.053Z,14.10
2019-05-22T22:45:34.289Z,13.90
2019-05-22T22:48:00.943Z,13.90
2019-05-22T22:50:28.094Z,13.70
2019-05-22T22:52:54.964Z,13.70
2019-05-22T22:55:23.272Z,13.70
2019-05-22T22:57:50.641Z,13.70
2019-05-22T23:00:20.110Z,13.70
2019-05-22T23:02:47.639Z,13.60
2019-05-22T23:05:16.196Z,13.60
2019-05-22T23:07:43.135Z,13.70
2019-05-22T23:10:12.597Z,13.70
2019-05-22T23:12:39.594Z,13.60
2019-05-22T23:15:06.943Z,13.60
2019-05-22T23:17:33.091Z,13.50
2019-05-22T23:19:59.344Z,13.40
2019-05-22T23:22:26.802Z,13.30
2019-05-22T23:24:53.144Z,13.20
2019-05-22T23:27:20.190Z,13.20
2019-05-22T23:29:47.542Z,13.20
2019-05-22T23:32:15.211Z,13.10
2019-05-22T23:34:43.394Z,13.10
2019-05-22T23:37:10.353Z,13.10
2019-05-22T23:39:38.775Z,13.10
2019-05-22T23:42:11.679Z,13.10
2019-05-22T23:44:39.463Z,13.10
2019-05-22T23:47:07.298Z,12.90
2019-05-22T23:49:35.253Z,12.80
2019-05-22T23:52:02.705Z,12.80
2019-05-22T23:54:29.943Z,12.70
2019-05-22T23:56:58.125Z,12.60
2019-05-22T23:59:26.597Z,12.60
